Terminal Aerodrome Forecast
Issued by NWS

Home | Current Version | Previous Version | Text Only | Print | Product List | Glossary On
Versions: 1 2 3 4 5 6 7 8 9 10 11 12 13 14 15 16 17 18 19
000
FTUS43 KEAX 270800 AAA
TAFMKC
TAF AMD
KMKC 270810Z 2708/2806 28010KT P6SM OVC011
      TEMPO 2708/2710 6SM -RA BR OVC008
     FM271000 30011KT P6SM BKN009
     FM271700 31011KT P6SM BKN015
     FM272000 31008KT P6SM SCT025
     FM272300 32006KT P6SM SKC=

USA.gov is the U.S. government's official web portal to all federal, state and local government web resources and services.